sensor_id;sensor_type;location;lat;lon;timestamp;temperature;humidity
18658;DHT22;9458;50.942;5.074;2022-07-29T00:00:59;21.20;94.00
18658;DHT22;9458;50.942;5.074;2022-07-29T00:03:27;21.20;93.50
18658;DHT22;9458;50.942;5.074;2022-07-29T00:05:55;21.20;93.60
18658;DHT22;9458;50.942;5.074;2022-07-29T00:08:22;21.20;93.60
18658;DHT22;9458;50.942;5.074;2022-07-29T00:10:52;21.10;93.60
18658;DHT22;9458;50.942;5.074;2022-07-29T00:13:20;21.00;93.80
18658;DHT22;9458;50.942;5.074;2022-07-29T00:15:48;21.00;93.70
18658;DHT22;9458;50.942;5.074;2022-07-29T00:18:18;21.00;93.70
18658;DHT22;9458;50.942;5.074;2022-07-29T00:20:46;20.90;93.90
18658;DHT22;9458;50.942;5.074;2022-07-29T00:23:13;20.90;94.00
18658;DHT22;9458;50.942;5.074;2022-07-29T00:25:43;20.90;94.10
18658;DHT22;9458;50.942;5.074;2022-07-29T00:28:11;20.90;94.30
18658;DHT22;9458;50.942;5.074;2022-07-29T00:30:42;20.80;94.40
18658;DHT22;9458;50.942;5.074;2022-07-29T00:33:10;20.80;94.50
18658;DHT22;9458;50.942;5.074;2022-07-29T00:35:39;20.80;94.50
18658;DHT22;9458;50.942;5.074;2022-07-29T00:38:13;20.80;94.60
18658;DHT22;9458;50.942;5.074;2022-07-29T00:40:42;20.80;94.70
18658;DHT22;9458;50.942;5.074;2022-07-29T00:43:12;20.80;94.70
18658;DHT22;9458;50.942;5.074;2022-07-29T00:45:41;20.80;94.80
18658;DHT22;9458;50.942;5.074;2022-07-29T00:48:09;20.80;94.90
18658;DHT22;9458;50.942;5.074;2022-07-29T00:50:41;20.80;95.00
18658;DHT22;9458;50.942;5.074;2022-07-29T00:53:09;20.80;95.10
18658;DHT22;9458;50.942;5.074;2022-07-29T00:55:39;20.80;95.00
18658;DHT22;9458;50.942;5.074;2022-07-29T00:58:07;20.70;95.10
18658;DHT22;9458;50.942;5.074;2022-07-29T01:00:35;20.80;95.30
18658;DHT22;9458;50.942;5.074;2022-07-29T01:03:03;20.80;95.20
18658;DHT22;9458;50.942;5.074;2022-07-29T01:05:31;20.80;95.30
18658;DHT22;9458;50.942;5.074;2022-07-29T01:08:02;20.80;95.30
18658;DHT22;9458;50.942;5.074;2022-07-29T01:10:30;20.80;95.30
18658;DHT22;9458;50.942;5.074;2022-07-29T01:12:59;20.80;95.30
18658;DHT22;9458;50.942;5.074;2022-07-29T01:15:28;20.80;95.40
18658;DHT22;9458;50.942;5.074;2022-07-29T01:18:01;20.80;95.30
18658;DHT22;9458;50.942;5.074;2022-07-29T01:20:39;20.80;95.20
18658;DHT22;9458;50.942;5.074;2022-07-29T01:26:31;20.70;95.20
18658;DHT22;9458;50.942;5.074;2022-07-29T01:29:07;20.70;95.30
18658;DHT22;9458;50.942;5.074;2022-07-29T01:31:43;20.60;95.30
18658;DHT22;9458;50.942;5.074;2022-07-29T01:34:21;20.60;95.30
18658;DHT22;9458;50.942;5.074;2022-07-29T01:36:55;20.60;95.30
18658;DHT22;9458;50.942;5.074;2022-07-29T01:39:29;20.60;95.50
18658;DHT22;9458;50.942;5.074;2022-07-29T01:42:01;20.50;95.40
18658;DHT22;9458;50.942;5.074;2022-07-29T01:44:35;20.50;95.50
18658;DHT22;9458;50.942;5.074;2022-07-29T01:47:10;20.50;95.60
18658;DHT22;9458;50.942;5.074;2022-07-29T01:49:42;20.50;95.70
18658;DHT22;9458;50.942;5.074;2022-07-29T01:52:19;20.50;95.60
18658;DHT22;9458;50.942;5.074;2022-07-29T01:54:52;20.50;95.80
18658;DHT22;9458;50.942;5.074;2022-07-29T01:57:26;20.40;95.80
18658;DHT22;9458;50.942;5.074;2022-07-29T01:59:58;20.40;95.90
18658;DHT22;9458;50.942;5.074;2022-07-29T02:02:28;20.40;96.00
18658;DHT22;9458;50.942;5.074;2022-07-29T02:04:57;20.40;96.00
18658;DHT22;9458;50.942;5.074;2022-07-29T02:07:28;20.40;96.20
18658;DHT22;9458;50.942;5.074;2022-07-29T02:09:58;20.30;96.20
18658;DHT22;9458;50.942;5.074;2022-07-29T02:12:28;20.30;96.30
18658;DHT22;9458;50.942;5.074;2022-07-29T02:15:00;20.30;96.40
18658;DHT22;9458;50.942;5.074;2022-07-29T02:17:32;20.30;96.40
18658;DHT22;9458;50.942;5.074;2022-07-29T02:20:04;20.30;96.50
18658;DHT22;9458;50.942;5.074;2022-07-29T02:22:36;20.30;96.60
18658;DHT22;9458;50.942;5.074;2022-07-29T02:25:06;20.20;96.50
18658;DHT22;9458;50.942;5.074;2022-07-29T02:27:35;20.20;96.60
18658;DHT22;9458;50.942;5.074;2022-07-29T02:30:06;20.30;96.70
18658;DHT22;9458;50.942;5.074;2022-07-29T02:32:37;20.20;96.70
18658;DHT22;9458;50.942;5.074;2022-07-29T02:35:07;20.20;96.80
18658;DHT22;9458;50.942;5.074;2022-07-29T02:37:36;20.20;96.90
18658;DHT22;9458;50.942;5.074;2022-07-29T02:40:08;20.10;97.00
18658;DHT22;9458;50.942;5.074;2022-07-29T02:42:37;20.00;97.20
18658;DHT22;9458;50.942;5.074;2022-07-29T02:45:09;20.00;97.70
18658;DHT22;9458;50.942;5.074;2022-07-29T02:47:41;20.00;97.40
18658;DHT22;9458;50.942;5.074;2022-07-29T02:50:14;20.00;97.40
18658;DHT22;9458;50.942;5.074;2022-07-29T02:52:45;20.00;97.70
18658;DHT22;9458;50.942;5.074;2022-07-29T02:55:18;20.00;97.80
18658;DHT22;9458;50.942;5.074;2022-07-29T02:57:51;20.00;97.90
18658;DHT22;9458;50.942;5.074;2022-07-29T03:00:29;20.00;97.90
18658;DHT22;9458;50.942;5.074;2022-07-29T03:03:01;20.00;98.00
18658;DHT22;9458;50.942;5.074;2022-07-29T03:05:39;20.00;98.10
18658;DHT22;9458;50.942;5.074;2022-07-29T03:08:17;19.90;98.10
18658;DHT22;9458;50.942;5.074;2022-07-29T03:10:55;19.90;98.30
18658;DHT22;9458;50.942;5.074;2022-07-29T03:13:23;19.90;98.50
18658;DHT22;9458;50.942;5.074;2022-07-29T03:15:54;19.90;98.50
18658;DHT22;9458;50.942;5.074;2022-07-29T03:18:25;19.80;98.50
18658;DHT22;9458;50.942;5.074;2022-07-29T03:20:53;19.80;98.60
18658;DHT22;9458;50.942;5.074;2022-07-29T03:23:22;19.80;98.70
18658;DHT22;9458;50.942;5.074;2022-07-29T03:25:51;19.80;98.80
18658;DHT22;9458;50.942;5.074;2022-07-29T03:28:19;19.80;98.80
18658;DHT22;9458;50.942;5.074;2022-07-29T03:30:49;19.70;98.80
18658;DHT22;9458;50.942;5.074;2022-07-29T03:33:19;19.60;99.20
18658;DHT22;9458;50.942;5.074;2022-07-29T03:35:47;19.60;98.90
18658;DHT22;9458;50.942;5.074;2022-07-29T03:38:15;19.60;98.90
18658;DHT22;9458;50.942;5.074;2022-07-29T03:40:46;19.60;99.00
18658;DHT22;9458;50.942;5.074;2022-07-29T03:43:17;19.60;99.20
18658;DHT22;9458;50.942;5.074;2022-07-29T03:45:49;19.60;99.20
18658;DHT22;9458;50.942;5.074;2022-07-29T03:48:22;19.60;99.30
18658;DHT22;9458;50.942;5.074;2022-07-29T03:50:51;19.60;99.30
18658;DHT22;9458;50.942;5.074;2022-07-29T03:53:19;19.60;99.30
18658;DHT22;9458;50.942;5.074;2022-07-29T03:55:48;19.50;99.20
18658;DHT22;9458;50.942;5.074;2022-07-29T03:58:18;19.50;99.30
18658;DHT22;9458;50.942;5.074;2022-07-29T04:00:47;19.50;99.30
18658;DHT22;9458;50.942;5.074;2022-07-29T04:03:14;19.40;99.30
18658;DHT22;9458;50.942;5.074;2022-07-29T04:05:43;19.40;99.30
18658;DHT22;9458;50.942;5.074;2022-07-29T04:08:11;19.40;99.40
18658;DHT22;9458;50.942;5.074;2022-07-29T04:10:38;19.40;99.50
18658;DHT22;9458;50.942;5.074;2022-07-29T04:13:07;19.40;99.50
18658;DHT22;9458;50.942;5.074;2022-07-29T04:15:34;19.40;99.70
18658;DHT22;9458;50.942;5.074;2022-07-29T04:18:02;19.40;99.80
18658;DHT22;9458;50.942;5.074;2022-07-29T04:20:29;19.40;99.90
18658;DHT22;9458;50.942;5.074;2022-07-29T04:22:58;19.40;99.90
18658;DHT22;9458;50.942;5.074;2022-07-29T04:25:26;19.40;99.90
18658;DHT22;9458;50.942;5.074;2022-07-29T04:27:53;19.40;99.90
18658;DHT22;9458;50.942;5.074;2022-07-29T04:30:27;19.40;99.90
18658;DHT22;9458;50.942;5.074;2022-07-29T04:32:54;19.40;99.90
18658;DHT22;9458;50.942;5.074;2022-07-29T04:35:22;19.40;99.90
18658;DHT22;9458;50.942;5.074;2022-07-29T04:37:50;19.40;99.90
18658;DHT22;9458;50.942;5.074;2022-07-29T04:40:20;19.40;99.90
18658;DHT22;9458;50.942;5.074;2022-07-29T04:42:48;19.30;99.90
18658;DHT22;9458;50.942;5.074;2022-07-29T04:45:16;19.40;99.90
18658;DHT22;9458;50.942;5.074;2022-07-29T04:47:43;19.40;99.90
18658;DHT22;9458;50.942;5.074;2022-07-29T04:50:12;19.30;99.90
18658;DHT22;9458;50.942;5.074;2022-07-29T04:52:40;19.40;99.90
18658;DHT22;9458;50.942;5.074;2022-07-29T04:55:08;19.30;99.90
18658;DHT22;9458;50.942;5.074;2022-07-29T04:57:37;19.30;99.90
18658;DHT22;9458;50.942;5.074;2022-07-29T05:00:06;19.30;99.90
18658;DHT22;9458;50.942;5.074;2022-07-29T05:02:33;19.30;99.90
18658;DHT22;9458;50.942;5.074;2022-07-29T05:05:01;19.30;99.90
18658;DHT22;9458;50.942;5.074;2022-07-29T05:07:28;19.40;99.90
18658;DHT22;9458;50.942;5.074;2022-07-29T05:09:56;19.40;99.90
18658;DHT22;9458;50.942;5.074;2022-07-29T05:12:24;19.40;99.90
18658;DHT22;9458;50.942;5.074;2022-07-29T05:14:53;19.40;99.90
18658;DHT22;9458;50.942;5.074;2022-07-29T05:17:21;19.40;99.90
18658;DHT22;9458;50.942;5.074;2022-07-29T05:19:48;19.40;99.90
18658;DHT22;9458;50.942;5.074;2022-07-29T05:22:17;19.40;99.90
18658;DHT22;9458;50.942;5.074;2022-07-29T05:24:45;19.50;99.90
18658;DHT22;9458;50.942;5.074;2022-07-29T05:27:13;19.60;99.90
18658;DHT22;9458;50.942;5.074;2022-07-29T05:29:40;19.70;99.90
18658;DHT22;9458;50.942;5.074;2022-07-29T05:32:10;19.90;99.90
18658;DHT22;9458;50.942;5.074;2022-07-29T05:34:37;20.00;99.90
18658;DHT22;9458;50.942;5.074;2022-07-29T05:37:05;20.10;99.70
18658;DHT22;9458;50.942;5.074;2022-07-29T05:39:33;20.20;99.60
18658;DHT22;9458;50.942;5.074;2022-07-29T05:42:00;20.30;99.50
18658;DHT22;9458;50.942;5.074;2022-07-29T05:44:28;20.40;99.50
18658;DHT22;9458;50.942;5.074;2022-07-29T05:46:55;20.60;99.50
18658;DHT22;9458;50.942;5.074;2022-07-29T05:49:24;20.70;99.40
18658;DHT22;9458;50.942;5.074;2022-07-29T05:51:51;20.80;99.10
18658;DHT22;9458;50.942;5.074;2022-07-29T05:54:19;21.10;98.90
18658;DHT22;9458;50.942;5.074;2022-07-29T05:56:46;21.30;98.50
18658;DHT22;9458;50.942;5.074;2022-07-29T05:59:14;21.50;98.60
18658;DHT22;9458;50.942;5.074;2022-07-29T06:01:42;21.80;98.70
18658;DHT22;9458;50.942;5.074;2022-07-29T06:04:10;22.10;97.80
18658;DHT22;9458;50.942;5.074;2022-07-29T06:06:40;22.60;97.30
18658;DHT22;9458;50.942;5.074;2022-07-29T06:09:07;23.20;96.80
18658;DHT22;9458;50.942;5.074;2022-07-29T06:11:35;23.70;96.00
18658;DHT22;9458;50.942;5.074;2022-07-29T06:14:03;24.20;95.60
18658;DHT22;9458;50.942;5.074;2022-07-29T06:16:31;24.60;95.10
18658;DHT22;9458;50.942;5.074;2022-07-29T06:18:58;24.90;94.40
18658;DHT22;9458;50.942;5.074;2022-07-29T06:21:25;25.30;94.20
18658;DHT22;9458;50.942;5.074;2022-07-29T06:23:54;25.60;93.60
18658;DHT22;9458;50.942;5.074;2022-07-29T06:26:23;25.80;93.40
18658;DHT22;9458;50.942;5.074;2022-07-29T06:28:50;26.00;93.10
18658;DHT22;9458;50.942;5.074;2022-07-29T06:31:18;26.20;92.70
18658;DHT22;9458;50.942;5.074;2022-07-29T06:33:45;26.40;92.50
18658;DHT22;9458;50.942;5.074;2022-07-29T06:36:13;26.60;92.50
18658;DHT22;9458;50.942;5.074;2022-07-29T06:38:41;26.80;92.20
18658;DHT22;9458;50.942;5.074;2022-07-29T06:41:10;27.10;92.00
18658;DHT22;9458;50.942;5.074;2022-07-29T06:43:40;27.30;91.80
18658;DHT22;9458;50.942;5.074;2022-07-29T06:46:11;27.60;91.50
18658;DHT22;9458;50.942;5.074;2022-07-29T06:48:40;27.80;91.40
18658;DHT22;9458;50.942;5.074;2022-07-29T06:51:08;28.00;90.30
18658;DHT22;9458;50.942;5.074;2022-07-29T06:53:38;28.30;90.70
18658;DHT22;9458;50.942;5.074;2022-07-29T06:56:07;28.60;90.60
18658;DHT22;9458;50.942;5.074;2022-07-29T06:58:39;28.80;89.90
18658;DHT22;9458;50.942;5.074;2022-07-29T07:01:07;29.10;89.80
18658;DHT22;9458;50.942;5.074;2022-07-29T07:03:35;29.30;89.60
18658;DHT22;9458;50.942;5.074;2022-07-29T07:06:04;29.50;88.60
18658;DHT22;9458;50.942;5.074;2022-07-29T07:08:31;29.80;88.70
18658;DHT22;9458;50.942;5.074;2022-07-29T07:10:59;30.00;87.10
18658;DHT22;9458;50.942;5.074;2022-07-29T07:13:27;30.10;86.10
18658;DHT22;9458;50.942;5.074;2022-07-29T07:16:01;30.30;85.90
18658;DHT22;9458;50.942;5.074;2022-07-29T07:18:29;30.50;85.10
18658;DHT22;9458;50.942;5.074;2022-07-29T07:20:56;30.70;85.50
18658;DHT22;9458;50.942;5.074;2022-07-29T07:23:25;30.70;85.40
18658;DHT22;9458;50.942;5.074;2022-07-29T07:25:52;30.80;84.20
18658;DHT22;9458;50.942;5.074;2022-07-29T07:28:20;31.10;84.50
18658;DHT22;9458;50.942;5.074;2022-07-29T07:30:48;31.40;83.60
18658;DHT22;9458;50.942;5.074;2022-07-29T07:33:19;31.60;83.60
18658;DHT22;9458;50.942;5.074;2022-07-29T07:35:46;31.90;82.30
18658;DHT22;9458;50.942;5.074;2022-07-29T07:38:17;32.00;81.80
18658;DHT22;9458;50.942;5.074;2022-07-29T07:40:44;32.40;82.40
18658;DHT22;9458;50.942;5.074;2022-07-29T07:43:12;32.70;82.30
18658;DHT22;9458;50.942;5.074;2022-07-29T07:45:40;32.70;81.00
18658;DHT22;9458;50.942;5.074;2022-07-29T07:48:08;32.90;79.40
18658;DHT22;9458;50.942;5.074;2022-07-29T07:50:39;33.10;78.80
18658;DHT22;9458;50.942;5.074;2022-07-29T07:53:09;33.30;79.00
18658;DHT22;9458;50.942;5.074;2022-07-29T07:55:39;33.60;79.00
18658;DHT22;9458;50.942;5.074;2022-07-29T07:58:07;33.80;78.30
18658;DHT22;9458;50.942;5.074;2022-07-29T08:00:35;34.00;77.50
18658;DHT22;9458;50.942;5.074;2022-07-29T08:03:04;34.20;77.50
18658;DHT22;9458;50.942;5.074;2022-07-29T08:05:31;34.40;77.50
18658;DHT22;9458;50.942;5.074;2022-07-29T08:08:00;34.50;76.80
18658;DHT22;9458;50.942;5.074;2022-07-29T08:10:27;34.80;75.70
18658;DHT22;9458;50.942;5.074;2022-07-29T08:13:12;35.00;75.50
18658;DHT22;9458;50.942;5.074;2022-07-29T08:15:40;35.10;75.80
18658;DHT22;9458;50.942;5.074;2022-07-29T08:18:09;35.40;74.40
18658;DHT22;9458;50.942;5.074;2022-07-29T08:20:37;35.70;74.50
18658;DHT22;9458;50.942;5.074;2022-07-29T08:23:07;35.80;73.40
18658;DHT22;9458;50.942;5.074;2022-07-29T08:25:36;36.10;73.40
18658;DHT22;9458;50.942;5.074;2022-07-29T08:28:06;36.40;71.20
18658;DHT22;9458;50.942;5.074;2022-07-29T08:30:36;36.40;71.40
18658;DHT22;9458;50.942;5.074;2022-07-29T08:33:04;36.60;72.20
18658;DHT22;9458;50.942;5.074;2022-07-29T08:35:31;36.60;72.10
18658;DHT22;9458;50.942;5.074;2022-07-29T08:37:58;36.80;72.20
18658;DHT22;9458;50.942;5.074;2022-07-29T08:40:27;36.90;72.60
18658;DHT22;9458;50.942;5.074;2022-07-29T08:42:55;37.10;72.50
18658;DHT22;9458;50.942;5.074;2022-07-29T08:45:23;37.00;71.20
18658;DHT22;9458;50.942;5.074;2022-07-29T08:47:52;37.60;72.60
18658;DHT22;9458;50.942;5.074;2022-07-29T08:50:19;37.70;71.80
18658;DHT22;9458;50.942;5.074;2022-07-29T08:52:48;37.90;71.00
18658;DHT22;9458;50.942;5.074;2022-07-29T08:55:17;38.00;70.60
18658;DHT22;9458;50.942;5.074;2022-07-29T08:57:46;38.00;69.60
18658;DHT22;9458;50.942;5.074;2022-07-29T09:00:15;38.10;68.80
18658;DHT22;9458;50.942;5.074;2022-07-29T09:02:45;38.00;69.50
18658;DHT22;9458;50.942;5.074;2022-07-29T09:05:14;38.10;68.80
18658;DHT22;9458;50.942;5.074;2022-07-29T09:07:43;38.60;69.20
18658;DHT22;9458;50.942;5.074;2022-07-29T09:10:13;38.70;67.90
18658;DHT22;9458;50.942;5.074;2022-07-29T09:12:41;38.70;68.50
18658;DHT22;9458;50.942;5.074;2022-07-29T09:15:10;39.10;68.40
18658;DHT22;9458;50.942;5.074;2022-07-29T09:17:42;39.10;65.80
18658;DHT22;9458;50.942;5.074;2022-07-29T09:20:11;38.90;66.90
18658;DHT22;9458;50.942;5.074;2022-07-29T09:22:40;39.10;65.80
18658;DHT22;9458;50.942;5.074;2022-07-29T09:25:07;39.00;65.80
18658;DHT22;9458;50.942;5.074;2022-07-29T09:27:35;39.00;64.30
18658;DHT22;9458;50.942;5.074;2022-07-29T09:30:04;39.10;65.30
18658;DHT22;9458;50.942;5.074;2022-07-29T09:32:33;39.30;66.00
18658;DHT22;9458;50.942;5.074;2022-07-29T09:35:22;39.40;65.60
18658;DHT22;9458;50.942;5.074;2022-07-29T09:37:54;39.60;65.80
18658;DHT22;9458;50.942;5.074;2022-07-29T09:40:23;39.90;65.50
18658;DHT22;9458;50.942;5.074;2022-07-29T09:42:51;39.90;63.70
18658;DHT22;9458;50.942;5.074;2022-07-29T09:45:32;40.20;63.00
18658;DHT22;9458;50.942;5.074;2022-07-29T09:48:14;40.10;63.80
18658;DHT22;9458;50.942;5.074;2022-07-29T09:50:42;40.30;63.80
18658;DHT22;9458;50.942;5.074;2022-07-29T09:53:11;40.50;63.30
18658;DHT22;9458;50.942;5.074;2022-07-29T09:55:47;40.20;62.40
18658;DHT22;9458;50.942;5.074;2022-07-29T09:58:16;40.00;62.10
18658;DHT22;9458;50.942;5.074;2022-07-29T10:00:44;40.10;62.10
18658;DHT22;9458;50.942;5.074;2022-07-29T10:03:14;39.90;62.20
18658;DHT22;9458;50.942;5.074;2022-07-29T10:05:42;38.90;62.60
18658;DHT22;9458;50.942;5.074;2022-07-29T10:08:12;38.10;64.20
18658;DHT22;9458;50.942;5.074;2022-07-29T10:10:41;37.60;68.40
18658;DHT22;9458;50.942;5.074;2022-07-29T10:13:11;36.80;66.30
18658;DHT22;9458;50.942;5.074;2022-07-29T10:15:41;36.40;67.50
18658;DHT22;9458;50.942;5.074;2022-07-29T10:18:11;36.10;68.60
18658;DHT22;9458;50.942;5.074;2022-07-29T10:20:41;35.60;68.70
18658;DHT22;9458;50.942;5.074;2022-07-29T10:23:09;35.40;70.00
18658;DHT22;9458;50.942;5.074;2022-07-29T10:25:36;35.00;70.20
18658;DHT22;9458;50.942;5.074;2022-07-29T10:28:05;34.80;69.40
18658;DHT22;9458;50.942;5.074;2022-07-29T10:30:33;34.70;69.90
18658;DHT22;9458;50.942;5.074;2022-07-29T10:33:18;34.50;70.20
18658;DHT22;9458;50.942;5.074;2022-07-29T10:36:11;34.10;70.20
18658;DHT22;9458;50.942;5.074;2022-07-29T10:38:52;34.00;71.90
18658;DHT22;9458;50.942;5.074;2022-07-29T10:41:39;33.90;72.80
18658;DHT22;9458;50.942;5.074;2022-07-29T10:44:20;33.60;71.00
18658;DHT22;9458;50.942;5.074;2022-07-29T10:46:49;33.40;69.80
18658;DHT22;9458;50.942;5.074;2022-07-29T10:49:18;33.20;71.60
18658;DHT22;9458;50.942;5.074;2022-07-29T10:52:06;33.20;72.00
18658;DHT22;9458;50.942;5.074;2022-07-29T10:54:49;33.00;72.50
18658;DHT22;9458;50.942;5.074;2022-07-29T10:57:24;32.80;73.20
18658;DHT22;9458;50.942;5.074;2022-07-29T11:00:26;32.60;72.90
18658;DHT22;9458;50.942;5.074;2022-07-29T11:02:54;32.20;73.50
18658;DHT22;9458;50.942;5.074;2022-07-29T11:05:24;32.20;73.20
18658;DHT22;9458;50.942;5.074;2022-07-29T11:08:22;32.20;74.40
18658;DHT22;9458;50.942;5.074;2022-07-29T11:14:02;31.90;75.20
18658;DHT22;9458;50.942;5.074;2022-07-29T11:17:03;31.60;73.70
18658;DHT22;9458;50.942;5.074;2022-07-29T11:19:41;31.70;73.90
18658;DHT22;9458;50.942;5.074;2022-07-29T11:22:09;31.60;75.80
18658;DHT22;9458;50.942;5.074;2022-07-29T11:24:39;31.60;76.20
18658;DHT22;9458;50.942;5.074;2022-07-29T11:27:14;31.50;75.00
18658;DHT22;9458;50.942;5.074;2022-07-29T11:29:53;31.40;75.60
18658;DHT22;9458;50.942;5.074;2022-07-29T11:32:21;31.10;75.40
18658;DHT22;9458;50.942;5.074;2022-07-29T11:35:10;31.10;75.10
18658;DHT22;9458;50.942;5.074;2022-07-29T11:37:38;31.20;76.90
18658;DHT22;9458;50.942;5.074;2022-07-29T11:40:12;31.30;75.90
18658;DHT22;9458;50.942;5.074;2022-07-29T11:45:45;31.10;75.20
18658;DHT22;9458;50.942;5.074;2022-07-29T11:48:17;30.80;75.90
18658;DHT22;9458;50.942;5.074;2022-07-29T11:50:45;30.50;75.50
18658;DHT22;9458;50.942;5.074;2022-07-29T11:53:13;30.50;76.80
18658;DHT22;9458;50.942;5.074;2022-07-29T11:55:43;30.40;76.60
18658;DHT22;9458;50.942;5.074;2022-07-29T11:58:11;30.50;76.20
18658;DHT22;9458;50.942;5.074;2022-07-29T12:00:40;30.50;75.80
18658;DHT22;9458;50.942;5.074;2022-07-29T12:03:09;30.50;76.40
18658;DHT22;9458;50.942;5.074;2022-07-29T12:05:40;30.50;76.00
18658;DHT22;9458;50.942;5.074;2022-07-29T12:08:13;30.50;76.00
18658;DHT22;9458;50.942;5.074;2022-07-29T12:10:43;30.50;76.30
18658;DHT22;9458;50.942;5.074;2022-07-29T12:13:12;30.40;76.20
18658;DHT22;9458;50.942;5.074;2022-07-29T12:15:40;30.40;76.90
18658;DHT22;9458;50.942;5.074;2022-07-29T12:18:14;30.30;75.90
18658;DHT22;9458;50.942;5.074;2022-07-29T12:20:42;30.20;75.20
18658;DHT22;9458;50.942;5.074;2022-07-29T12:23:10;30.10;75.40
18658;DHT22;9458;50.942;5.074;2022-07-29T12:25:40;30.10;75.00
18658;DHT22;9458;50.942;5.074;2022-07-29T12:28:14;29.90;74.60
18658;DHT22;9458;50.942;5.074;2022-07-29T12:30:49;29.80;75.50
18658;DHT22;9458;50.942;5.074;2022-07-29T12:33:18;29.80;75.90
18658;DHT22;9458;50.942;5.074;2022-07-29T12:35:50;29.80;76.80
18658;DHT22;9458;50.942;5.074;2022-07-29T12:38:18;29.90;75.60
18658;DHT22;9458;50.942;5.074;2022-07-29T12:40:47;29.80;74.90
18658;DHT22;9458;50.942;5.074;2022-07-29T12:43:17;29.70;76.30
18658;DHT22;9458;50.942;5.074;2022-07-29T12:45:46;29.80;75.70
18658;DHT22;9458;50.942;5.074;2022-07-29T12:48:16;29.70;76.30
18658;DHT22;9458;50.942;5.074;2022-07-29T12:50:54;29.60;76.50
18658;DHT22;9458;50.942;5.074;2022-07-29T12:53:22;29.60;76.80
18658;DHT22;9458;50.942;5.074;2022-07-29T12:55:51;29.60;77.00
18658;DHT22;9458;50.942;5.074;2022-07-29T12:58:31;29.50;78.00
18658;DHT22;9458;50.942;5.074;2022-07-29T13:01:04;29.40;77.40
18658;DHT22;9458;50.942;5.074;2022-07-29T13:03:47;29.40;77.90
18658;DHT22;9458;50.942;5.074;2022-07-29T13:06:28;29.40;78.90
18658;DHT22;9458;50.942;5.074;2022-07-29T13:09:35;29.40;78.30
18658;DHT22;9458;50.942;5.074;2022-07-29T13:12:07;29.50;79.10
18658;DHT22;9458;50.942;5.074;2022-07-29T13:14:38;29.40;77.20
18658;DHT22;9458;50.942;5.074;2022-07-29T13:17:08;29.40;77.00
18658;DHT22;9458;50.942;5.074;2022-07-29T13:19:37;29.30;76.30
18658;DHT22;9458;50.942;5.074;2022-07-29T13:22:07;29.20;76.20
18658;DHT22;9458;50.942;5.074;2022-07-29T13:24:44;29.20;77.10
18658;DHT22;9458;50.942;5.074;2022-07-29T13:27:13;29.20;77.00
18658;DHT22;9458;50.942;5.074;2022-07-29T13:29:43;29.20;78.00
18658;DHT22;9458;50.942;5.074;2022-07-29T13:32:11;29.20;76.40
18658;DHT22;9458;50.942;5.074;2022-07-29T13:34:39;29.20;76.60
18658;DHT22;9458;50.942;5.074;2022-07-29T13:37:07;29.20;75.50
18658;DHT22;9458;50.942;5.074;2022-07-29T13:39:34;29.20;76.90
18658;DHT22;9458;50.942;5.074;2022-07-29T13:42:03;29.10;75.80
18658;DHT22;9458;50.942;5.074;2022-07-29T13:44:30;29.10;76.60
18658;DHT22;9458;50.942;5.074;2022-07-29T13:47:00;29.00;75.60
18658;DHT22;9458;50.942;5.074;2022-07-29T13:49:28;29.00;77.50
18658;DHT22;9458;50.942;5.074;2022-07-29T13:51:56;29.10;77.10
18658;DHT22;9458;50.942;5.074;2022-07-29T13:54:23;29.00;76.30
18658;DHT22;9458;50.942;5.074;2022-07-29T13:56:51;29.10;77.10
18658;DHT22;9458;50.942;5.074;2022-07-29T13:59:18;29.00;76.50
18658;DHT22;9458;50.942;5.074;2022-07-29T14:01:46;29.00;76.70
18658;DHT22;9458;50.942;5.074;2022-07-29T14:04:15;29.00;77.20
18658;DHT22;9458;50.942;5.074;2022-07-29T14:06:42;28.90;77.00
18658;DHT22;9458;50.942;5.074;2022-07-29T14:09:09;28.90;77.80
18658;DHT22;9458;50.942;5.074;2022-07-29T14:11:37;28.90;77.40
18658;DHT22;9458;50.942;5.074;2022-07-29T14:14:05;28.90;77.90
18658;DHT22;9458;50.942;5.074;2022-07-29T14:16:32;28.90;78.10
18658;DHT22;9458;50.942;5.074;2022-07-29T14:19:00;28.90;79.20
18658;DHT22;9458;50.942;5.074;2022-07-29T14:21:30;28.90;78.10
18658;DHT22;9458;50.942;5.074;2022-07-29T14:23:57;28.90;79.00
18658;DHT22;9458;50.942;5.074;2022-07-29T14:26:25;28.90;78.10
18658;DHT22;9458;50.942;5.074;2022-07-29T14:28:53;28.90;77.30
18658;DHT22;9458;50.942;5.074;2022-07-29T14:31:20;28.80;77.90
18658;DHT22;9458;50.942;5.074;2022-07-29T14:33:47;28.80;78.20
18658;DHT22;9458;50.942;5.074;2022-07-29T14:36:15;28.70;77.40
18658;DHT22;9458;50.942;5.074;2022-07-29T14:38:44;28.70;78.10
18658;DHT22;9458;50.942;5.074;2022-07-29T14:41:11;28.70;77.20
18658;DHT22;9458;50.942;5.074;2022-07-29T14:43:39;28.70;76.30
18658;DHT22;9458;50.942;5.074;2022-07-29T14:46:07;28.60;76.00
18658;DHT22;9458;50.942;5.074;2022-07-29T14:48:34;28.60;76.70
18658;DHT22;9458;50.942;5.074;2022-07-29T14:51:01;28.50;77.40
18658;DHT22;9458;50.942;5.074;2022-07-29T14:53:29;28.50;77.50
18658;DHT22;9458;50.942;5.074;2022-07-29T14:55:58;28.50;77.40
18658;DHT22;9458;50.942;5.074;2022-07-29T14:58:25;28.50;77.10
18658;DHT22;9458;50.942;5.074;2022-07-29T15:00:53;28.50;77.80
18658;DHT22;9458;50.942;5.074;2022-07-29T15:03:22;28.40;75.20
18658;DHT22;9458;50.942;5.074;2022-07-29T15:05:50;28.40;76.90
18658;DHT22;9458;50.942;5.074;2022-07-29T15:08:18;28.30;76.30
18658;DHT22;9458;50.942;5.074;2022-07-29T15:10:45;28.30;77.40
18658;DHT22;9458;50.942;5.074;2022-07-29T15:13:14;28.30;77.20
18658;DHT22;9458;50.942;5.074;2022-07-29T15:15:43;28.30;77.10
18658;DHT22;9458;50.942;5.074;2022-07-29T15:18:11;28.30;77.20
18658;DHT22;9458;50.942;5.074;2022-07-29T15:20:38;28.30;77.70
18658;DHT22;9458;50.942;5.074;2022-07-29T15:23:06;28.30;76.20
18658;DHT22;9458;50.942;5.074;2022-07-29T15:25:35;28.30;76.30
18658;DHT22;9458;50.942;5.074;2022-07-29T15:28:03;28.20;76.40
18658;DHT22;9458;50.942;5.074;2022-07-29T15:30:35;28.20;77.10
18658;DHT22;9458;50.942;5.074;2022-07-29T15:33:07;28.10;76.80
18658;DHT22;9458;50.942;5.074;2022-07-29T15:35:38;28.10;78.00
18658;DHT22;9458;50.942;5.074;2022-07-29T15:38:08;28.10;76.80
18658;DHT22;9458;50.942;5.074;2022-07-29T15:40:37;28.10;76.90
18658;DHT22;9458;50.942;5.074;2022-07-29T15:43:06;28.00;76.80
18658;DHT22;9458;50.942;5.074;2022-07-29T15:45:39;28.00;77.20
18658;DHT22;9458;50.942;5.074;2022-07-29T15:48:08;28.00;77.00
18658;DHT22;9458;50.942;5.074;2022-07-29T15:50:36;28.00;77.70
18658;DHT22;9458;50.942;5.074;2022-07-29T15:53:03;27.90;77.70
18658;DHT22;9458;50.942;5.074;2022-07-29T15:55:32;27.90;77.50
18658;DHT22;9458;50.942;5.074;2022-07-29T15:57:59;28.00;77.50
18658;DHT22;9458;50.942;5.074;2022-07-29T16:00:27;27.90;77.90
18658;DHT22;9458;50.942;5.074;2022-07-29T16:02:56;28.00;77.90
18658;DHT22;9458;50.942;5.074;2022-07-29T16:05:24;28.00;78.50
18658;DHT22;9458;50.942;5.074;2022-07-29T16:07:54;28.00;78.60
18658;DHT22;9458;50.942;5.074;2022-07-29T16:10:21;28.00;78.70
18658;DHT22;9458;50.942;5.074;2022-07-29T16:12:49;27.90;78.80